Welkom op de weersite van Veghel e.o.

NIEUW !!!->-> WEBCAM STEENUIL <-<- NIEUW !!!->-> WEBCAM STEENUIL <-<- NIEUW !!!->-> WEBCAM STEENUIL <-<- NIEUW !!!

Als plaatje niet actueel is cache legen;
Ctrl + Shift + R

Mijn ervaring is dat dit het best werk met Microsoft Edge en Firefox.


Webcam Veghel  Webcam Veghel


Steenuil Veghel  Steenuil Veghel


Onweer radar Meer informatie blitzortung!


Regen radar Meer informatie rain snow radar


U vindt ons ook hier:

Het Weer Aktueel

European Weather Network

Weather Underground

Benelux Weer Netwerk

AWEKAS


Het weer levert geen direct gevaar op.    Er zijn geen waarschuwingen afgegeven.

METAR rapporten vliegvelden

   
EHAM - Amsterdam
Gewijzigd: 21-09-2021 22:25
Licht bewolkt  
Licht bewolkt  
   Wind: WZW 9.3 km/h
Wind: WZW 9.3 km/h
Temperatuur: 14°C
Dauwpunt: 12°C
Vochtigheid: 88%
Barometer: 1030 hPa
Bewolking: Few Clouds
Zicht: meer dan 10 km
Bewolking: Licht bewolkt 2000 ft
EHAM 212025Z 25005KT 9999 FEW020 14/12 Q1030 NOSIG
EHEH - Eindhoven
Gewijzigd: 21-09-2021 22:25
Bewolking  
Bewolking  
   Wind: ZZW 3.7 km/h
Wind: ZZW 3.7 km/h
Temperatuur: 10°C
Dauwpunt: 9°C
Vochtigheid: 94%
Barometer: 1031 hPa
Bewolking: Overcast
Zicht: meer dan 10 km
Bewolking: Grotendeels bewolkt 25000 ft,
Bewolking 34000 ft
EHEH 212025Z AUTO 21002KT 9999 BKN250 OVC340 10/09 Q1031 BLU NOSIG
EHGR - Gilze/Rijen
Gewijzigd: 21-09-2021 22:25
Bewolking  
Bewolking  
   Wind: Westen 5.6 km/h
Wind: Westen 5.6 km/h
Temperatuur: 10°C
Voelt als: 9°C
Dauwpunt: 8°C
Vochtigheid: 88%
Barometer: 1031 hPa
Bewolking: Overcast
Zicht: meer dan 10 km
Bewolking: Bewolking 35000 ft
EHGR 212025Z AUTO 28003KT 9999 OVC350 10/08 Q1031 BLU NOSIG
EHBK - Maastricht
Gewijzigd: 21-09-2021 22:25
Helder  
Helder  
   Wind: varieert 3.7 km/h
Wind: varieert 3.7 km/h
Temperatuur: 12°C
Dauwpunt: 8°C
Vochtigheid: 77%
Barometer: 1031 hPa
Zicht: meer dan 10 km
Bewolking: Helder ft
EHBK 212025Z AUTO VRB02KT CAVOK 12/08 Q1031 NOSIG
EHVK - Volkel
Gewijzigd: 21-09-2021 22:55
Bewolking  
Bewolking  
   Wind: ZW 1.9 km/h
Wind: ZW 1.9 km/h
Temperatuur: 10°C
Dauwpunt: 9°C
Vochtigheid: 94%
Barometer: 1031 hPa
Bewolking: Overcast
Zicht: meer dan 10 km
Bewolking: Bewolking 33000 ft
EHVK 212055Z AUTO 23001KT 9999 OVC330 10/09 Q1031 BLU
EHFS - Vlissingen
Gewijzigd: 21-09-2021 22:25
Gedeeltelijk bewolkt  
Gedeeltelijk bewolkt  
   Wind: NNO 5.6 km/h
Wind: NNO 5.6 km/h
Temperatuur: 15°C
Dauwpunt: 11°C
Vochtigheid: 77%
Barometer: 1030 hPa
Bewolking: Partly Cloudy
Zicht: meer dan 10 km
Bewolking: Gedeeltelijk bewolkt ft
EHFS 212025Z AUTO 02003KT 9999 NSC 15/11 Q1030

Script ontwikkeld door  Saratoga-weather.org Aangepast voor de template door  Weerstation Leuven

Apparatuur in gebruik:

Weerstation
Davis VP2

Weerprogramma
WeatherLink

Weercomputer
Sponsor

Webleverancier
My provider

Davis VP2

WeatherLink

Sponsor

My provider